sensor_id;sensor_type;location;lat;lon;timestamp;pressure;altitude;pressure_sealevel;temperature;humidity
44441;BME280;30146;52.268;20.944;2023-02-19T00:02:08;99790.61;;;3.90;68.38
44441;BME280;30146;52.268;20.944;2023-02-19T00:04:37;99781.65;;;3.92;68.69
44441;BME280;30146;52.268;20.944;2023-02-19T00:07:05;99776.25;;;3.94;68.67
44441;BME280;30146;52.268;20.944;2023-02-19T00:09:33;99767.45;;;3.95;68.53
44441;BME280;30146;52.268;20.944;2023-02-19T00:12:03;99772.03;;;3.95;68.49
44441;BME280;30146;52.268;20.944;2023-02-19T00:14:31;99777.46;;;3.97;68.59
44441;BME280;30146;52.268;20.944;2023-02-19T00:17:00;99780.34;;;3.98;68.59
44441;BME280;30146;52.268;20.944;2023-02-19T00:19:28;99778.49;;;3.99;68.44
44441;BME280;30146;52.268;20.944;2023-02-19T00:21:56;99775.30;;;4.01;68.36
44441;BME280;30146;52.268;20.944;2023-02-19T00:24:25;99769.21;;;4.02;68.26
44441;BME280;30146;52.268;20.944;2023-02-19T00:26:53;99770.41;;;4.03;68.29
44441;BME280;30146;52.268;20.944;2023-02-19T00:29:23;99770.91;;;4.02;68.09
44441;BME280;30146;52.268;20.944;2023-02-19T00:31:52;99770.74;;;4.04;67.92
44441;BME280;30146;52.268;20.944;2023-02-19T00:34:21;99770.75;;;4.05;67.77
44441;BME280;30146;52.268;20.944;2023-02-19T00:36:50;99765.37;;;4.07;67.75
44441;BME280;30146;52.268;20.944;2023-02-19T00:39:18;99757.26;;;4.09;67.68
44441;BME280;30146;52.268;20.944;2023-02-19T00:41:48;99763.18;;;4.10;67.53
44441;BME280;30146;52.268;20.944;2023-02-19T00:44:16;99762.84;;;4.10;67.58
44441;BME280;30146;52.268;20.944;2023-02-19T00:46:49;99763.70;;;4.11;67.53
44441;BME280;30146;52.268;20.944;2023-02-19T00:49:19;99761.67;;;4.12;67.56
44441;BME280;30146;52.268;20.944;2023-02-19T00:51:49;99759.83;;;4.13;67.42
44441;BME280;30146;52.268;20.944;2023-02-19T00:54:19;99760.88;;;4.16;67.59
44441;BME280;30146;52.268;20.944;2023-02-19T00:56:49;99761.71;;;4.17;67.22
44441;BME280;30146;52.268;20.944;2023-02-19T00:59:18;99767.65;;;4.20;67.49
44441;BME280;30146;52.268;20.944;2023-02-19T01:01:47;99769.36;;;4.21;67.28
44441;BME280;30146;52.268;20.944;2023-02-19T01:04:17;99773.59;;;4.22;66.91
44441;BME280;30146;52.268;20.944;2023-02-19T01:06:45;99768.19;;;4.23;67.13
44441;BME280;30146;52.268;20.944;2023-02-19T01:09:15;99766.34;;;4.25;67.19
44441;BME280;30146;52.268;20.944;2023-02-19T01:11:43;99763.30;;;4.27;67.10
44441;BME280;30146;52.268;20.944;2023-02-19T01:14:13;99759.77;;;4.29;67.37
44441;BME280;30146;52.268;20.944;2023-02-19T01:16:41;99761.13;;;4.30;66.75
44441;BME280;30146;52.268;20.944;2023-02-19T01:19:09;99761.98;;;4.30;66.89
44441;BME280;30146;52.268;20.944;2023-02-19T01:21:39;99759.95;;;4.32;66.76
44441;BME280;30146;52.268;20.944;2023-02-19T01:24:09;99764.36;;;4.34;66.85
44441;BME280;30146;52.268;20.944;2023-02-19T01:26:38;99757.95;;;4.35;66.61
44441;BME280;30146;52.268;20.944;2023-02-19T01:29:07;99759.98;;;4.35;66.78
44441;BME280;30146;52.268;20.944;2023-02-19T01:31:36;99753.21;;;4.36;66.62
44441;BME280;30146;52.268;20.944;2023-02-19T01:34:06;99752.04;;;4.37;66.39
44441;BME280;30146;52.268;20.944;2023-02-19T01:36:36;99755.09;;;4.38;66.49
44441;BME280;30146;52.268;20.944;2023-02-19T01:39:07;99756.11;;;4.38;66.86
44441;BME280;30146;52.268;20.944;2023-02-19T01:41:41;99759.33;;;4.38;66.85
44441;BME280;30146;52.268;20.944;2023-02-19T01:47:09;99765.77;;;4.40;66.99
44441;BME280;30146;52.268;20.944;2023-02-19T01:49:40;99768.30;;;4.40;66.67
44441;BME280;30146;52.268;20.944;2023-02-19T01:52:18;99764.74;;;4.39;66.88
44441;BME280;30146;52.268;20.944;2023-02-19T01:54:50;99765.76;;;4.40;66.70
44441;BME280;30146;52.268;20.944;2023-02-19T01:57:21;99763.91;;;4.41;66.72
44441;BME280;30146;52.268;20.944;2023-02-19T01:59:53;99763.40;;;4.41;66.73
44441;BME280;30146;52.268;20.944;2023-02-19T02:02:22;99760.02;;;4.43;66.76
44441;BME280;30146;52.268;20.944;2023-02-19T02:04:51;99760.88;;;4.43;66.58
44441;BME280;30146;52.268;20.944;2023-02-19T02:07:20;99758.33;;;4.42;66.56
44441;BME280;30146;52.268;20.944;2023-02-19T02:10:07;99759.16;;;4.40;66.41
44441;BME280;30146;52.268;20.944;2023-02-19T02:12:49;99756.61;;;4.39;66.52
44441;BME280;30146;52.268;20.944;2023-02-19T02:15:18;99760.00;;;4.37;66.48
44441;BME280;30146;52.268;20.944;2023-02-19T02:17:54;99755.08;;;4.36;66.44
44441;BME280;30146;52.268;20.944;2023-02-19T02:20:33;99751.00;;;4.33;66.43
44441;BME280;30146;52.268;20.944;2023-02-19T02:23:08;99750.30;;;4.31;66.33
44441;BME280;30146;52.268;20.944;2023-02-19T02:25:59;99753.52;;;4.28;66.37
44441;BME280;30146;52.268;20.944;2023-02-19T02:28:55;99756.72;;;4.27;66.54
44441;BME280;30146;52.268;20.944;2023-02-19T02:31:34;99756.89;;;4.27;66.58
44441;BME280;30146;52.268;20.944;2023-02-19T02:34:09;99763.66;;;4.28;66.83
44441;BME280;30146;52.268;20.944;2023-02-19T02:36:43;99766.53;;;4.28;66.29
44441;BME280;30146;52.268;20.944;2023-02-19T02:39:17;99771.27;;;4.27;66.77
44441;BME280;30146;52.268;20.944;2023-02-19T02:41:50;99768.38;;;4.26;66.62
44441;BME280;30146;52.268;20.944;2023-02-19T02:44:38;99765.51;;;4.27;66.64
44441;BME280;30146;52.268;20.944;2023-02-19T02:47:07;99763.31;;;4.29;66.86
44441;BME280;30146;52.268;20.944;2023-02-19T02:49:57;99756.73;;;4.28;66.65
44441;BME280;30146;52.268;20.944;2023-02-19T02:52:36;99761.29;;;4.29;67.04
44441;BME280;30146;52.268;20.944;2023-02-19T02:55:24;99766.02;;;4.28;66.79
44441;BME280;30146;52.268;20.944;2023-02-19T02:57:53;99759.08;;;4.28;66.95
44441;BME280;30146;52.268;20.944;2023-02-19T03:00:23;99759.94;;;4.29;67.08
44441;BME280;30146;52.268;20.944;2023-02-19T03:02:53;99753.83;;;4.27;67.13
44441;BME280;30146;52.268;20.944;2023-02-19T03:05:24;99755.36;;;4.27;67.06
44441;BME280;30146;52.268;20.944;2023-02-19T03:08:13;99751.98;;;4.28;67.29
44441;BME280;30146;52.268;20.944;2023-02-19T03:10:44;99750.98;;;4.28;66.86
44441;BME280;30146;52.268;20.944;2023-02-19T03:13:17;99749.62;;;4.29;67.26
44441;BME280;30146;52.268;20.944;2023-02-19T03:16:11;99749.44;;;4.28;67.28
44441;BME280;30146;52.268;20.944;2023-02-19T03:19:15;99752.83;;;4.29;67.21
44441;BME280;30146;52.268;20.944;2023-02-19T03:21:51;99753.35;;;4.30;67.13
44441;BME280;30146;52.268;20.944;2023-02-19T03:24:24;99753.16;;;4.30;67.33
44441;BME280;30146;52.268;20.944;2023-02-19T03:27:14;99753.34;;;4.29;66.89
44441;BME280;30146;52.268;20.944;2023-02-19T03:29:48;99760.77;;;4.27;66.89
44441;BME280;30146;52.268;20.944;2023-02-19T03:32:22;99763.95;;;4.22;67.01
44441;BME280;30146;52.268;20.944;2023-02-19T03:34:55;99762.42;;;4.20;67.14
44441;BME280;30146;52.268;20.944;2023-02-19T03:37:30;99760.02;;;4.18;67.14
44441;BME280;30146;52.268;20.944;2023-02-19T03:40:00;99756.47;;;4.17;66.85
44441;BME280;30146;52.268;20.944;2023-02-19T03:42:38;99755.60;;;4.15;67.11
44441;BME280;30146;52.268;20.944;2023-02-19T03:45:32;99756.27;;;4.12;66.77
44441;BME280;30146;52.268;20.944;2023-02-19T03:48:21;99753.88;;;4.09;67.01
44441;BME280;30146;52.268;20.944;2023-02-19T03:51:14;99746.41;;;4.04;67.28
44441;BME280;30146;52.268;20.944;2023-02-19T03:53:57;99743.14;;;3.98;66.62
44441;BME280;30146;52.268;20.944;2023-02-19T03:56:33;99739.56;;;3.94;66.89
44441;BME280;30146;52.268;20.944;2023-02-19T03:59:09;99731.92;;;3.90;66.97
44441;BME280;30146;52.268;20.944;2023-02-19T04:01:41;99733.23;;;3.83;66.97
44441;BME280;30146;52.268;20.944;2023-02-19T04:04:16;99728.63;;;3.79;67.06
44441;BME280;30146;52.268;20.944;2023-02-19T04:06:49;99729.10;;;3.75;67.14
44441;BME280;30146;52.268;20.944;2023-02-19T04:09:22;99733.46;;;3.71;67.21
44441;BME280;30146;52.268;20.944;2023-02-19T04:12:02;99735.95;;;3.67;67.12
44441;BME280;30146;52.268;20.944;2023-02-19T04:14:35;99738.63;;;3.64;67.21
44441;BME280;30146;52.268;20.944;2023-02-19T04:17:08;99736.41;;;3.61;67.29
44441;BME280;30146;52.268;20.944;2023-02-19T04:19:43;99726.06;;;3.57;67.35
44441;BME280;30146;52.268;20.944;2023-02-19T04:22:13;99727.39;;;3.53;67.19
44441;BME280;30146;52.268;20.944;2023-02-19T04:24:48;99727.36;;;3.50;67.37
44441;BME280;30146;52.268;20.944;2023-02-19T04:27:17;99724.30;;;3.49;67.42
44441;BME280;30146;52.268;20.944;2023-02-19T04:29:46;99718.88;;;3.46;67.25
44441;BME280;30146;52.268;20.944;2023-02-19T04:32:14;99715.65;;;3.44;67.31
44441;BME280;30146;52.268;20.944;2023-02-19T04:34:43;99711.21;;;3.41;66.96
44441;BME280;30146;52.268;20.944;2023-02-19T04:37:11;99710.35;;;3.38;67.23
44441;BME280;30146;52.268;20.944;2023-02-19T04:39:39;99715.23;;;3.36;67.33
44441;BME280;30146;52.268;20.944;2023-02-19T04:42:09;99714.72;;;3.35;67.46
44441;BME280;30146;52.268;20.944;2023-02-19T04:44:38;99708.61;;;3.34;67.49
44441;BME280;30146;52.268;20.944;2023-02-19T04:47:06;99703.54;;;3.33;67.30
44441;BME280;30146;52.268;20.944;2023-02-19T04:49:34;99705.89;;;3.33;67.21
44441;BME280;30146;52.268;20.944;2023-02-19T04:52:03;99712.14;;;3.32;67.48
44441;BME280;30146;52.268;20.944;2023-02-19T04:54:31;99721.92;;;3.31;67.47
44441;BME280;30146;52.268;20.944;2023-02-19T04:56:59;99724.63;;;3.31;67.41
44441;BME280;30146;52.268;20.944;2023-02-19T04:59:28;99719.55;;;3.30;67.73
44441;BME280;30146;52.268;20.944;2023-02-19T05:01:56;99710.25;;;3.29;67.44
44441;BME280;30146;52.268;20.944;2023-02-19T05:04:24;99705.20;;;3.28;67.47
44441;BME280;30146;52.268;20.944;2023-02-19T05:06:53;99705.34;;;3.27;67.46
44441;BME280;30146;52.268;20.944;2023-02-19T05:09:21;99702.29;;;3.25;67.57
44441;BME280;30146;52.268;20.944;2023-02-19T05:11:51;99706.49;;;3.25;67.72
44441;BME280;30146;52.268;20.944;2023-02-19T05:14:19;99708.53;;;3.25;67.60
44441;BME280;30146;52.268;20.944;2023-02-19T05:16:47;99711.23;;;3.25;67.69
44441;BME280;30146;52.268;20.944;2023-02-19T05:19:18;99702.94;;;3.24;67.58
44441;BME280;30146;52.268;20.944;2023-02-19T05:21:48;99695.85;;;3.23;67.51
44441;BME280;30146;52.268;20.944;2023-02-19T05:24:16;99699.38;;;3.22;67.60
44441;BME280;30146;52.268;20.944;2023-02-19T05:26:44;99700.89;;;3.21;67.67
44441;BME280;30146;52.268;20.944;2023-02-19T05:29:12;99704.26;;;3.20;67.87
44441;BME280;30146;52.268;20.944;2023-02-19T05:31:41;99706.28;;;3.19;67.67
44441;BME280;30146;52.268;20.944;2023-02-19T05:34:09;99702.73;;;3.19;67.80
44441;BME280;30146;52.268;20.944;2023-02-19T05:36:38;99702.91;;;3.20;67.65
44441;BME280;30146;52.268;20.944;2023-02-19T05:39:09;99702.08;;;3.21;67.87
44441;BME280;30146;52.268;20.944;2023-02-19T05:41:38;99694.82;;;3.22;67.85
44441;BME280;30146;52.268;20.944;2023-02-19T05:44:08;99692.30;;;3.23;67.69
44441;BME280;30146;52.268;20.944;2023-02-19T05:46:37;99689.77;;;3.23;67.72
44441;BME280;30146;52.268;20.944;2023-02-19T05:49:05;99687.41;;;3.25;67.98
44441;BME280;30146;52.268;20.944;2023-02-19T05:51:33;99683.05;;;3.27;68.08
44441;BME280;30146;52.268;20.944;2023-02-19T05:54:02;99685.95;;;3.30;68.13
44441;BME280;30146;52.268;20.944;2023-02-19T05:56:34;99692.05;;;3.33;68.12
44441;BME280;30146;52.268;20.944;2023-02-19T05:59:05;99692.41;;;3.35;68.11
44441;BME280;30146;52.268;20.944;2023-02-19T06:01:35;99692.77;;;3.36;68.16
44441;BME280;30146;52.268;20.944;2023-02-19T06:04:03;99693.45;;;3.37;68.14
44441;BME280;30146;52.268;20.944;2023-02-19T06:06:32;99688.05;;;3.38;68.21
44441;BME280;30146;52.268;20.944;2023-02-19T06:09:00;99690.77;;;3.41;68.35
44441;BME280;30146;52.268;20.944;2023-02-19T06:11:29;99692.84;;;3.44;68.31
44441;BME280;30146;52.268;20.944;2023-02-19T06:13:57;99693.02;;;3.44;68.03
44441;BME280;30146;52.268;20.944;2023-02-19T06:16:26;99696.22;;;3.46;68.17
44441;BME280;30146;52.268;20.944;2023-02-19T06:18:54;99698.10;;;3.48;68.15
44441;BME280;30146;52.268;20.944;2023-02-19T06:21:23;99698.46;;;3.51;68.14
44441;BME280;30146;52.268;20.944;2023-02-19T06:23:51;99697.30;;;3.52;67.93
44441;BME280;30146;52.268;20.944;2023-02-19T06:26:21;99706.44;;;3.54;68.21
44441;BME280;30146;52.268;20.944;2023-02-19T06:28:51;99705.93;;;3.56;68.03
44441;BME280;30146;52.268;20.944;2023-02-19T06:31:21;99711.54;;;3.58;68.36
44441;BME280;30146;52.268;20.944;2023-02-19T06:33:50;99711.06;;;3.62;68.21
44441;BME280;30146;52.268;20.944;2023-02-19T06:36:19;99713.80;;;3.65;68.20
44441;BME280;30146;52.268;20.944;2023-02-19T06:38:48;99712.47;;;3.68;68.02
44441;BME280;30146;52.268;20.944;2023-02-19T06:41:17;99709.80;;;3.70;68.06
44441;BME280;30146;52.268;20.944;2023-02-19T06:43:47;99706.26;;;3.73;67.74
44441;BME280;30146;52.268;20.944;2023-02-19T06:46:16;99705.62;;;3.77;68.13
44441;BME280;30146;52.268;20.944;2023-02-19T06:48:44;99702.96;;;3.83;67.97
44441;BME280;30146;52.268;20.944;2023-02-19T06:51:14;99698.95;;;3.90;68.13
44441;BME280;30146;52.268;20.944;2023-02-19T06:53:45;99700.86;;;3.98;68.24
44441;BME280;30146;52.268;20.944;2023-02-19T06:56:23;99704.13;;;4.05;68.12
44441;BME280;30146;52.268;20.944;2023-02-19T06:58:55;99708.75;;;4.12;68.18
44441;BME280;30146;52.268;20.944;2023-02-19T07:01:25;99711.48;;;4.16;67.88
44441;BME280;30146;52.268;20.944;2023-02-19T07:03:53;99711.98;;;4.20;67.57
44441;BME280;30146;52.268;20.944;2023-02-19T07:06:24;99713.71;;;4.23;67.56
44441;BME280;30146;52.268;20.944;2023-02-19T07:08:53;99716.42;;;4.24;67.42
44441;BME280;30146;52.268;20.944;2023-02-19T07:11:22;99716.60;;;4.24;67.42
44441;BME280;30146;52.268;20.944;2023-02-19T07:13:54;99718.64;;;4.25;67.29
44441;BME280;30146;52.268;20.944;2023-02-19T07:16:23;99718.46;;;4.24;67.21
44441;BME280;30146;52.268;20.944;2023-02-19T07:18:54;99720.64;;;4.22;67.12
44441;BME280;30146;52.268;20.944;2023-02-19T07:21:26;99723.85;;;4.20;67.03
44441;BME280;30146;52.268;20.944;2023-02-19T07:23:58;99728.76;;;4.21;66.99
44441;BME280;30146;52.268;20.944;2023-02-19T07:26:26;99726.20;;;4.19;67.28
44441;BME280;30146;52.268;20.944;2023-02-19T07:28:55;99731.61;;;4.17;67.14
44441;BME280;30146;52.268;20.944;2023-02-19T07:31:23;99728.73;;;4.18;67.15
44441;BME280;30146;52.268;20.944;2023-02-19T07:33:52;99736.17;;;4.18;67.12
44441;BME280;30146;52.268;20.944;2023-02-19T07:36:22;99735.02;;;4.19;67.18
44441;BME280;30146;52.268;20.944;2023-02-19T07:38:54;99736.20;;;4.22;67.15
44441;BME280;30146;52.268;20.944;2023-02-19T07:41:22;99733.67;;;4.22;67.19
44441;BME280;30146;52.268;20.944;2023-02-19T07:43:52;99732.84;;;4.25;67.04
44441;BME280;30146;52.268;20.944;2023-02-19T07:46:21;99734.71;;;4.26;66.96
44441;BME280;30146;52.268;20.944;2023-02-19T07:48:49;99732.53;;;4.30;67.46
44441;BME280;30146;52.268;20.944;2023-02-19T07:51:19;99733.08;;;4.34;67.20
44441;BME280;30146;52.268;20.944;2023-02-19T07:53:51;99735.99;;;4.42;67.21
44441;BME280;30146;52.268;20.944;2023-02-19T07:56:22;99735.35;;;4.49;67.12
44441;BME280;30146;52.268;20.944;2023-02-19T07:58:50;99731.84;;;4.56;67.13
44441;BME280;30146;52.268;20.944;2023-02-19T08:01:21;99732.89;;;4.63;66.99
44441;BME280;30146;52.268;20.944;2023-02-19T08:04:12;99735.80;;;4.72;67.19
44441;BME280;30146;52.268;20.944;2023-02-19T08:06:41;99735.16;;;4.78;66.95
44441;BME280;30146;52.268;20.944;2023-02-19T08:09:13;99739.41;;;4.84;66.87
44441;BME280;30146;52.268;20.944;2023-02-19T08:11:41;99738.75;;;4.89;66.83
44441;BME280;30146;52.268;20.944;2023-02-19T08:14:28;99739.95;;;4.94;66.81
44441;BME280;30146;52.268;20.944;2023-02-19T08:16:57;99742.35;;;4.99;66.88
44441;BME280;30146;52.268;20.944;2023-02-19T08:19:25;99745.92;;;5.04;66.57
44441;BME280;30146;52.268;20.944;2023-02-19T08:21:53;99747.30;;;5.09;66.37
44441;BME280;30146;52.268;20.944;2023-02-19T08:24:22;99751.88;;;5.12;66.19
44441;BME280;30146;52.268;20.944;2023-02-19T08:26:50;99755.45;;;5.16;66.20
44441;BME280;30146;52.268;20.944;2023-02-19T08:29:24;99758.68;;;5.18;66.04
44441;BME280;30146;52.268;20.944;2023-02-19T08:31:52;99759.02;;;5.19;66.18
44441;BME280;30146;52.268;20.944;2023-02-19T08:34:21;99762.59;;;5.22;65.85
44441;BME280;30146;52.268;20.944;2023-02-19T08:36:49;99764.95;;;5.23;65.81
44441;BME280;30146;52.268;20.944;2023-02-19T08:39:18;99762.77;;;5.25;65.81
44441;BME280;30146;52.268;20.944;2023-02-19T08:41:48;99760.23;;;5.27;65.75
44441;BME280;30146;52.268;20.944;2023-02-19T08:44:17;99761.24;;;5.30;65.68
44441;BME280;30146;52.268;20.944;2023-02-19T08:46:45;99764.81;;;5.32;65.62
44441;BME280;30146;52.268;20.944;2023-02-19T08:49:13;99768.05;;;5.34;65.63
44441;BME280;30146;52.268;20.944;2023-02-19T08:51:45;99765.52;;;5.36;65.56
44441;BME280;30146;52.268;20.944;2023-02-19T08:54:13;99769.41;;;5.37;65.37
44441;BME280;30146;52.268;20.944;2023-02-19T08:56:41;99766.87;;;5.37;65.09
44441;BME280;30146;52.268;20.944;2023-02-19T08:59:10;99763.98;;;5.38;65.10
44441;BME280;30146;52.268;20.944;2023-02-19T09:01:39;99763.14;;;5.37;65.20
44441;BME280;30146;52.268;20.944;2023-02-19T09:04:08;99761.61;;;5.38;65.08
44441;BME280;30146;52.268;20.944;2023-02-19T09:06:38;99762.63;;;5.38;65.19
44441;BME280;30146;52.268;20.944;2023-02-19T09:09:08;99763.48;;;5.41;65.12
44441;BME280;30146;52.268;20.944;2023-02-19T09:11:38;99759.42;;;5.41;65.00
44441;BME280;30146;52.268;20.944;2023-02-19T09:14:07;99761.46;;;5.44;64.96
44441;BME280;30146;52.268;20.944;2023-02-19T09:16:35;99763.66;;;5.47;65.02
44441;BME280;30146;52.268;20.944;2023-02-19T09:19:04;99759.77;;;5.50;64.79
44441;BME280;30146;52.268;20.944;2023-02-19T09:21:33;99764.19;;;5.54;64.75
44441;BME280;30146;52.268;20.944;2023-02-19T09:24:02;99765.55;;;5.57;64.83
44441;BME280;30146;52.268;20.944;2023-02-19T09:26:30;99766.56;;;5.58;64.51
44441;BME280;30146;52.268;20.944;2023-02-19T09:28:58;99768.27;;;5.59;64.23
44441;BME280;30146;52.268;20.944;2023-02-19T09:31:27;99768.79;;;5.64;64.42
44441;BME280;30146;52.268;20.944;2023-02-19T09:33:55;99770.31;;;5.72;64.68
44441;BME280;30146;52.268;20.944;2023-02-19T09:36:26;99767.61;;;5.77;64.45
44441;BME280;30146;52.268;20.944;2023-02-19T09:38:54;99767.09;;;5.81;64.07
44441;BME280;30146;52.268;20.944;2023-02-19T09:41:27;99771.17;;;5.83;64.16
44441;BME280;30146;52.268;20.944;2023-02-19T09:43:57;99770.83;;;5.84;63.90
44441;BME280;30146;52.268;20.944;2023-02-19T09:46:31;99772.88;;;5.82;63.79
44441;BME280;30146;52.268;20.944;2023-02-19T09:49:05;99776.95;;;5.80;63.64
44441;BME280;30146;52.268;20.944;2023-02-19T09:51:36;99782.70;;;5.81;63.89
44441;BME280;30146;52.268;20.944;2023-02-19T09:54:19;99782.02;;;5.84;63.69
44441;BME280;30146;52.268;20.944;2023-02-19T09:56:48;99778.13;;;5.90;63.79
44441;BME280;30146;52.268;20.944;2023-02-19T09:59:20;99775.45;;;6.00;63.74
44441;BME280;30146;52.268;20.944;2023-02-19T10:01:53;99775.45;;;6.12;63.63
44441;BME280;30146;52.268;20.944;2023-02-19T10:04:23;99775.77;;;6.31;63.80
44441;BME280;30146;52.268;20.944;2023-02-19T10:06:52;99769.11;;;6.55;63.85
44441;BME280;30146;52.268;20.944;2023-02-19T10:09:28;99771.73;;;6.87;64.07
44441;BME280;30146;52.268;20.944;2023-02-19T10:11:58;99771.36;;;7.31;64.25
44441;BME280;30146;52.268;20.944;2023-02-19T10:14:34;99763.10;;;7.76;64.19
44441;BME280;30146;52.268;20.944;2023-02-19T10:17:05;99770.98;;;8.13;63.63
44441;BME280;30146;52.268;20.944;2023-02-19T10:19:35;99770.25;;;8.37;62.87
44441;BME280;30146;52.268;20.944;2023-02-19T10:22:04;99771.97;;;8.54;62.40
44441;BME280;30146;52.268;20.944;2023-02-19T10:24:32;99777.65;;;8.64;61.86
44441;BME280;30146;52.268;20.944;2023-02-19T10:27:01;99777.78;;;8.68;61.22
44441;BME280;30146;52.268;20.944;2023-02-19T10:29:29;99779.33;;;8.68;60.70
44441;BME280;30146;52.268;20.944;2023-02-19T10:32:15;99780.44;;;8.60;60.04
44441;BME280;30146;52.268;20.944;2023-02-19T10:34:46;99779.88;;;8.48;59.49
44441;BME280;30146;52.268;20.944;2023-02-19T10:37:16;99783.36;;;8.38;59.28
44441;BME280;30146;52.268;20.944;2023-02-19T10:39:47;99785.80;;;8.30;59.32
44441;BME280;30146;52.268;20.944;2023-02-19T10:42:19;99789.42;;;8.24;59.23
44441;BME280;30146;52.268;20.944;2023-02-19T10:44:51;99786.08;;;8.18;59.06
44441;BME280;30146;52.268;20.944;2023-02-19T10:47:23;99790.88;;;8.14;59.11
44441;BME280;30146;52.268;20.944;2023-02-19T10:49:53;99793.79;;;8.11;59.19
44441;BME280;30146;52.268;20.944;2023-02-19T10:52:26;99796.40;;;8.06;59.00
44441;BME280;30146;52.268;20.944;2023-02-19T10:55:12;99800.34;;;8.01;59.00
44441;BME280;30146;52.268;20.944;2023-02-19T10:57:41;99800.19;;;8.01;59.10
44441;BME280;30146;52.268;20.944;2023-02-19T11:00:21;99798.95;;;8.05;59.34
44441;BME280;30146;52.268;20.944;2023-02-19T11:03:17;99799.08;;;8.09;59.34
44441;BME280;30146;52.268;20.944;2023-02-19T11:06:00;99799.28;;;8.06;58.65
44441;BME280;30146;52.268;20.944;2023-02-19T11:08:30;99800.84;;;8.04;58.64
44441;BME280;30146;52.268;20.944;2023-02-19T11:11:01;99799.33;;;8.00;58.41
44441;BME280;30146;52.268;20.944;2023-02-19T11:13:31;99804.97;;;7.97;58.28
44441;BME280;30146;52.268;20.944;2023-02-19T11:16:05;99804.48;;;7.93;58.12
44441;BME280;30146;52.268;20.944;2023-02-19T11:18:36;99806.89;;;7.91;58.28
44441;BME280;30146;52.268;20.944;2023-02-19T11:21:06;99807.75;;;7.89;57.97
44441;BME280;30146;52.268;20.944;2023-02-19T11:23:42;99811.52;;;7.85;57.88
44441;BME280;30146;52.268;20.944;2023-02-19T11:26:17;99809.30;;;7.84;58.03
44441;BME280;30146;52.268;20.944;2023-02-19T11:28:55;99806.10;;;7.81;57.67
44441;BME280;30146;52.268;20.944;2023-02-19T11:31:26;99806.29;;;7.77;57.55
44441;BME280;30146;52.268;20.944;2023-02-19T11:33:59;99805.98;;;7.74;57.69
44441;BME280;30146;52.268;20.944;2023-02-19T11:36:30;99808.03;;;7.72;57.45
44441;BME280;30146;52.268;20.944;2023-02-19T11:39:04;99806.70;;;7.68;57.65
44441;BME280;30146;52.268;20.944;2023-02-19T11:44:48;99804.15;;;7.67;57.54
44441;BME280;30146;52.268;20.944;2023-02-19T11:47:41;99806.52;;;7.71;57.56
44441;BME280;30146;52.268;20.944;2023-02-19T11:50:17;99807.31;;;7.77;57.58
44441;BME280;30146;52.268;20.944;2023-02-19T11:52:57;99807.98;;;7.81;57.39
44441;BME280;30146;52.268;20.944;2023-02-19T11:55:36;99806.77;;;7.84;57.31
44441;BME280;30146;52.268;20.944;2023-02-19T11:58:24;99811.52;;;7.85;57.33
44441;BME280;30146;52.268;20.944;2023-02-19T12:01:05;99817.11;;;7.90;57.37
44441;BME280;30146;52.268;20.944;2023-02-19T12:03:54;99818.96;;;7.93;57.13
44441;BME280;30146;52.268;20.944;2023-02-19T12:06:31;99823.19;;;7.96;57.20
44441;BME280;30146;52.268;20.944;2023-02-19T12:09:21;99822.32;;;7.98;57.03
44441;BME280;30146;52.268;20.944;2023-02-19T12:12:03;99825.73;;;7.98;56.72
44441;BME280;30146;52.268;20.944;2023-02-19T12:14:59;99827.08;;;7.99;56.78
44441;BME280;30146;52.268;20.944;2023-02-19T12:17:46;99831.98;;;8.02;56.78
44441;BME280;30146;52.268;20.944;2023-02-19T12:21:09;99827.89;;;8.04;56.71
44441;BME280;30146;52.268;20.944;2023-02-19T12:23:58;99833.17;;;8.04;56.49
44441;BME280;30146;52.268;20.944;2023-02-19T12:26:31;99834.20;;;8.02;56.33
44441;BME280;30146;52.268;20.944;2023-02-19T12:29:29;99840.16;;;8.02;56.30
44441;BME280;30146;52.268;20.944;2023-02-19T12:32:26;99844.78;;;7.99;56.21
44441;BME280;30146;52.268;20.944;2023-02-19T12:35:32;99841.79;;;7.89;55.60
44441;BME280;30146;52.268;20.944;2023-02-19T12:38:13;99855.64;;;7.78;55.62
44441;BME280;30146;52.268;20.944;2023-02-19T12:40:52;99861.13;;;7.66;55.69
44441;BME280;30146;52.268;20.944;2023-02-19T12:43:27;99861.54;;;7.55;55.71
44441;BME280;30146;52.268;20.944;2023-02-19T12:45:59;99861.93;;;7.44;55.62
44441;BME280;30146;52.268;20.944;2023-02-19T12:48:30;99866.56;;;7.35;55.82
44441;BME280;30146;52.268;20.944;2023-02-19T12:51:04;99866.08;;;7.29;55.96
44441;BME280;30146;52.268;20.944;2023-02-19T12:53:40;99867.63;;;7.23;55.98
44441;BME280;30146;52.268;20.944;2023-02-19T12:56:15;99869.34;;;7.20;56.14
44441;BME280;30146;52.268;20.944;2023-02-19T12:58:48;99868.83;;;7.21;56.66
44441;BME280;30146;52.268;20.944;2023-02-19T13:01:22;99871.52;;;7.26;56.64
44441;BME280;30146;52.268;20.944;2023-02-19T13:03:57;99876.61;;;7.28;56.73
44441;BME280;30146;52.268;20.944;2023-02-19T13:06:35;99876.61;;;7.34;56.73
44441;BME280;30146;52.268;20.944;2023-02-19T13:09:12;99876.94;;;7.37;56.58
44441;BME280;30146;52.268;20.944;2023-02-19T13:11:47;99875.40;;;7.36;56.51
44441;BME280;30146;52.268;20.944;2023-02-19T13:14:21;99872.16;;;7.36;56.36
44441;BME280;30146;52.268;20.944;2023-02-19T13:16:54;99873.36;;;7.37;56.38
44441;BME280;30146;52.268;20.944;2023-02-19T13:19:24;99875.73;;;7.41;56.46
44441;BME280;30146;52.268;20.944;2023-02-19T13:21:57;99877.91;;;7.46;56.54
44441;BME280;30146;52.268;20.944;2023-02-19T13:24:47;99873.80;;;7.51;56.33
44441;BME280;30146;52.268;20.944;2023-02-19T13:27:32;99877.19;;;7.56;56.26
44441;BME280;30146;52.268;20.944;2023-02-19T13:33:20;99887.88;;;7.61;55.90
44441;BME280;30146;52.268;20.944;2023-02-19T13:36:12;99887.38;;;7.60;55.59
44441;BME280;30146;52.268;20.944;2023-02-19T13:38:43;99889.59;;;7.59;55.50
44441;BME280;30146;52.268;20.944;2023-02-19T13:41:26;99896.89;;;7.62;55.48